[Jeden Donnerstag | 1800z - 2000z | EDDH] Hamburg Thursday

Zu Eventkalender hinzugefügt: 644 Daten

Samy Greve

874505
ATD - Prüfer
RG München - Event
RG München - NAV
RG München - Mentor
Ab 20 Uhr Lokal steht die Crew im Norden Deutschlands wieder für euch zur Verfügung! Hier und da wird leichter Schneefall am Airport erwartet :)

EDDH 041100Z 0412/0518 07007KT 9999 SCT010 BKN020 TEMPO 0412/0418 3000 -SN BKN007 TEMPO 0418/0509 BKN007 BECMG 0506/0509 09012KT PROB40 TEMPO 0509/0518 4000 -SN BKN007 PROB30 TEMPO 0512/0518 09015G25KT
In Düssedorf ist ja auch noch CPT sodass sich die Rennstrecke natürlich anbietet :)
 
Zuletzt bearbeitet:
Oben